createdAt,value
2022-09-03T00:00:25.563Z,59.0
2022-09-03T00:01:26.179Z,58.8
2022-09-03T00:02:26.807Z,59.4
2022-09-03T00:03:27.366Z,59.5
2022-09-03T00:04:27.960Z,59.9
2022-09-03T00:05:28.554Z,60.0
2022-09-03T00:06:29.148Z,60.3
2022-09-03T00:07:29.744Z,60.0
2022-09-03T00:08:30.357Z,60.4
2022-09-03T00:09:30.972Z,60.4
2022-09-03T00:10:31.584Z,60.5
2022-09-03T00:11:32.179Z,60.8
2022-09-03T00:12:32.792Z,60.2
2022-09-03T00:13:33.902Z,60.0
2022-09-03T00:14:34.497Z,60.6
2022-09-03T00:15:35.169Z,60.7
2022-09-03T00:16:35.701Z,60.1
2022-09-03T00:17:36.296Z,60.4
2022-09-03T00:18:36.890Z,59.8
2022-09-03T00:19:37.483Z,60.2
2022-09-03T00:20:38.081Z,59.6
2022-09-03T00:21:38.931Z,60.1
2022-09-03T00:22:39.528Z,59.7
2022-09-03T00:23:40.122Z,60.0
2022-09-03T00:24:40.716Z,60.1
2022-09-03T00:25:41.315Z,60.5
2022-09-03T00:26:41.924Z,60.6
2022-09-03T00:27:42.517Z,60.2
2022-09-03T00:28:43.113Z,61.1
2022-09-03T00:29:43.706Z,60.0
2022-09-03T00:30:44.300Z,61.1
2022-09-03T00:31:45.406Z,61.5
2022-09-03T00:32:46.001Z,61.2
2022-09-03T00:33:46.595Z,61.0
2022-09-03T00:34:47.188Z,61.5
2022-09-03T00:35:47.783Z,62.2
2022-09-03T00:36:48.381Z,61.9
2022-09-03T00:37:48.979Z,62.2
2022-09-03T00:38:50.279Z,62.1
2022-09-03T00:39:50.923Z,62.3
2022-09-03T00:40:51.479Z,62.1
2022-09-03T00:41:52.074Z,62.3
2022-09-03T00:42:53.001Z,62.6
2022-09-03T00:43:53.596Z,62.7
2022-09-03T00:44:54.193Z,62.6
2022-09-03T00:45:54.803Z,62.6
2022-09-03T00:46:55.433Z,62.6
2022-09-03T00:47:56.028Z,62.6
2022-09-03T00:48:56.624Z,62.5
2022-09-03T00:49:57.218Z,62.6
2022-09-03T00:50:57.814Z,62.3
2022-09-03T00:51:58.418Z,62.8
2022-09-03T00:52:59.004Z,63.6
2022-09-03T00:53:59.599Z,63.0
2022-09-03T00:55:00.204Z,62.9
2022-09-03T00:56:00.790Z,62.5
2022-09-03T00:57:01.384Z,64.0
2022-09-03T00:58:01.979Z,64.2
2022-09-03T00:59:02.573Z,64.5
2022-09-03T01:00:03.169Z,65.1
2022-09-03T01:01:03.762Z,65.1
2022-09-03T01:02:04.468Z,65.7
2022-09-03T01:03:04.963Z,64.8
2022-09-03T01:04:05.555Z,65.5
2022-09-03T01:05:06.150Z,65.1
2022-09-03T01:06:06.963Z,66.0
2022-09-03T01:07:07.557Z,65.7
2022-09-03T01:08:08.150Z,66.1
2022-09-03T01:09:08.746Z,65.2
2022-09-03T01:10:09.339Z,65.7
2022-09-03T01:11:09.934Z,65.5
2022-09-03T01:12:10.529Z,65.4
2022-09-03T01:13:11.133Z,65.5
2022-09-03T01:14:11.716Z,65.5
2022-09-03T01:15:12.313Z,65.1
2022-09-03T01:16:13.026Z,65.2
2022-09-03T01:17:13.513Z,65.1
2022-09-03T01:18:14.109Z,65.3
2022-09-03T01:19:14.723Z,65.3
2022-09-03T01:20:15.316Z,65.4
2022-09-03T01:21:15.912Z,65.1
2022-09-03T01:22:16.505Z,65.2
2022-09-03T01:23:17.103Z,66.1
2022-09-03T01:24:17.694Z,65.8
2022-09-03T01:25:18.289Z,65.1
2022-09-03T01:26:18.882Z,65.2
2022-09-03T01:27:19.475Z,65.3
2022-09-03T01:28:20.069Z,65.0
2022-09-03T01:29:20.665Z,65.7
2022-09-03T01:30:21.257Z,66.0
2022-09-03T01:31:21.946Z,65.9
2022-09-03T01:32:22.506Z,65.6
2022-09-03T01:33:23.100Z,65.3
2022-09-03T01:34:23.694Z,66.1
2022-09-03T01:35:24.289Z,66.2
2022-09-03T01:36:25.876Z,66.5
2022-09-03T01:37:26.473Z,66.8
2022-09-03T01:38:27.067Z,66.0
2022-09-03T01:39:27.714Z,66.0
2022-09-03T01:40:28.260Z,65.1
2022-09-03T01:41:28.875Z,65.2
2022-09-03T01:42:29.467Z,65.7
2022-09-03T01:43:30.065Z,65.2
2022-09-03T01:44:31.651Z,65.1
2022-09-03T01:45:32.248Z,65.4
2022-09-03T01:46:32.874Z,65.1
2022-09-03T01:47:33.602Z,65.1
2022-09-03T01:48:34.197Z,65.1
2022-09-03T01:49:34.797Z,65.2
2022-09-03T01:50:35.395Z,65.0
2022-09-03T01:51:35.983Z,65.3
2022-09-03T01:52:36.578Z,65.3
2022-09-03T01:53:37.173Z,65.4
2022-09-03T01:54:37.766Z,65.4
2022-09-03T01:55:38.360Z,65.0
2022-09-03T01:56:38.957Z,65.4
2022-09-03T01:57:39.550Z,64.9
2022-09-03T01:58:41.192Z,65.7
2022-09-03T01:59:41.730Z,65.6
2022-09-03T02:00:42.327Z,64.7
2022-09-03T02:01:42.953Z,64.8
2022-09-03T02:02:43.693Z,64.8
2022-09-03T02:03:44.340Z,64.4
2022-09-03T02:04:44.950Z,64.9
2022-09-03T02:05:45.541Z,64.8
2022-09-03T02:06:46.157Z,64.8
2022-09-03T02:07:46.748Z,65.0
2022-09-03T02:08:47.344Z,66.0
2022-09-03T02:09:47.961Z,65.5
2022-09-03T02:10:48.557Z,66.1
2022-09-03T02:11:49.216Z,65.4
2022-09-03T02:12:49.944Z,65.5
2022-09-03T02:13:50.537Z,65.6
2022-09-03T02:14:51.132Z,66.1
2022-09-03T02:15:51.768Z,65.1
2022-09-03T02:16:52.326Z,65.0
2022-09-03T02:17:52.919Z,65.1
2022-09-03T02:18:53.513Z,64.5
2022-09-03T02:19:54.105Z,64.1
2022-09-03T02:20:54.704Z,64.5
2022-09-03T02:21:55.316Z,64.2
2022-09-03T02:22:55.913Z,64.2
2022-09-03T02:23:56.504Z,64.9
2022-09-03T02:24:57.100Z,64.6
2022-09-03T02:25:57.693Z,64.4
2022-09-03T02:26:58.289Z,64.3
2022-09-03T02:27:58.884Z,64.4
2022-09-03T02:28:59.481Z,64.3
2022-09-03T02:30:00.099Z,65.2
2022-09-03T02:31:00.784Z,65.5
2022-09-03T02:32:01.282Z,64.0
2022-09-03T02:33:01.878Z,64.8
2022-09-03T02:34:02.474Z,64.9
2022-09-03T02:35:03.924Z,65.4
2022-09-03T02:36:04.518Z,65.3
2022-09-03T02:37:05.115Z,65.1
2022-09-03T02:38:05.708Z,65.6
2022-09-03T02:39:06.306Z,65.8
2022-09-03T02:40:06.951Z,65.6
2022-09-03T02:41:07.498Z,65.6
2022-09-03T02:42:08.093Z,66.5
2022-09-03T02:43:09.683Z,66.9
2022-09-03T02:44:10.276Z,66.6
2022-09-03T02:45:10.870Z,66.2
2022-09-03T02:46:11.519Z,67.3
2022-09-03T02:47:12.108Z,66.4
2022-09-03T02:48:12.704Z,67.1
2022-09-03T02:49:13.295Z,66.9
2022-09-03T02:50:13.889Z,66.8
2022-09-03T02:51:14.673Z,66.5
2022-09-03T02:52:15.204Z,66.4
2022-09-03T02:53:15.800Z,65.1
2022-09-03T02:54:20.763Z,65.3
2022-09-03T02:55:17.981Z,66.1
2022-09-03T02:56:18.577Z,66.4
2022-09-03T02:57:27.708Z,66.4
2022-09-03T02:58:19.798Z,65.4
2022-09-03T02:59:20.371Z,65.3
2022-09-03T03:00:20.966Z,66.2
2022-09-03T03:01:23.839Z,66.0
2022-09-03T03:02:23.214Z,66.5
2022-09-03T03:03:23.771Z,67.1
2022-09-03T03:04:24.364Z,67.2
2022-09-03T03:05:25.469Z,67.1
2022-09-03T03:06:26.064Z,66.5
2022-09-03T03:07:26.658Z,66.4
2022-09-03T03:08:27.254Z,66.5
2022-09-03T03:09:27.849Z,66.4
2022-09-03T03:10:28.442Z,66.6
2022-09-03T03:11:29.040Z,66.7
2022-09-03T03:12:29.655Z,66.2
2022-09-03T03:13:30.249Z,66.4
2022-09-03T03:14:30.842Z,65.9
2022-09-03T03:15:31.439Z,65.7
2022-09-03T03:16:32.084Z,65.8
2022-09-03T03:17:32.657Z,65.8
2022-09-03T03:18:33.254Z,65.9
2022-09-03T03:19:33.850Z,65.3
2022-09-03T03:20:34.443Z,66.3
2022-09-03T03:21:35.037Z,66.7
2022-09-03T03:22:35.632Z,67.1
2022-09-03T03:23:36.227Z,67.2
2022-09-03T03:24:36.822Z,67.1
2022-09-03T03:25:37.416Z,67.1
2022-09-03T03:26:38.012Z,67.2
2022-09-03T03:27:38.607Z,66.9
2022-09-03T03:28:39.210Z,66.8
2022-09-03T03:29:39.797Z,67.0
2022-09-03T03:30:40.431Z,67.4
2022-09-03T03:31:41.018Z,67.3
2022-09-03T03:32:41.611Z,67.2
2022-09-03T03:33:42.205Z,66.8
2022-09-03T03:34:42.801Z,67.2
2022-09-03T03:35:43.394Z,67.0
2022-09-03T03:36:43.986Z,67.0
2022-09-03T03:37:44.583Z,66.6
2022-09-03T03:38:45.188Z,67.1
2022-09-03T03:39:45.834Z,66.7
2022-09-03T03:40:46.369Z,66.5
2022-09-03T03:41:46.964Z,66.5
2022-09-03T03:42:47.559Z,66.3
2022-09-03T03:43:48.155Z,66.3
2022-09-03T03:44:48.747Z,66.7
2022-09-03T03:45:49.452Z,67.1
2022-09-03T03:46:50.014Z,66.6
2022-09-03T03:47:50.609Z,66.8
2022-09-03T03:48:51.206Z,67.4
2022-09-03T03:49:51.817Z,67.4
2022-09-03T03:50:52.411Z,67.0
2022-09-03T03:51:53.005Z,67.4
2022-09-03T03:52:53.601Z,67.0
2022-09-03T03:53:54.194Z,67.1
2022-09-03T03:54:55.556Z,67.3
2022-09-03T03:55:56.098Z,67.5
2022-09-03T03:56:56.702Z,67.6
2022-09-03T03:57:57.286Z,68.0
2022-09-03T03:58:57.880Z,67.2
2022-09-03T03:59:58.475Z,67.6
2022-09-03T04:00:59.077Z,68.3
2022-09-03T04:01:59.724Z,68.5
2022-09-03T04:03:00.283Z,67.4
2022-09-03T04:04:00.876Z,68.1
2022-09-03T04:05:01.472Z,67.9
2022-09-03T04:06:02.066Z,68.2
2022-09-03T04:07:02.668Z,68.0
2022-09-03T04:08:03.254Z,68.9
2022-09-03T04:09:03.869Z,69.2
2022-09-03T04:10:04.474Z,69.5
2022-09-03T04:11:05.077Z,69.0
2022-09-03T04:12:05.676Z,68.9
2022-09-03T04:13:06.271Z,69.2
2022-09-03T04:14:06.869Z,69.2
2022-09-03T04:15:07.465Z,69.0
2022-09-03T04:16:08.098Z,69.1
2022-09-03T04:17:08.658Z,69.0
2022-09-03T04:18:09.254Z,68.9
2022-09-03T04:19:09.847Z,68.9
2022-09-03T04:20:10.445Z,69.1
2022-09-03T04:21:11.040Z,69.3
2022-09-03T04:22:11.636Z,68.8
2022-09-03T04:23:12.230Z,68.4
2022-09-03T04:24:12.828Z,68.8
2022-09-03T04:25:13.422Z,68.9
2022-09-03T04:26:14.020Z,69.1
2022-09-03T04:27:14.621Z,69.6
2022-09-03T04:28:15.285Z,69.7
2022-09-03T04:29:15.851Z,69.7
2022-09-03T04:30:16.461Z,69.7
2022-09-03T04:31:17.085Z,69.4
2022-09-03T04:32:17.829Z,69.4
2022-09-03T04:33:18.424Z,69.2
2022-09-03T04:34:19.022Z,69.5
2022-09-03T04:35:19.618Z,69.6
2022-09-03T04:36:20.218Z,69.7
2022-09-03T04:37:20.815Z,69.8
2022-09-03T04:38:21.434Z,69.2
2022-09-03T04:39:22.076Z,69.1
2022-09-03T04:40:22.631Z,68.9
2022-09-03T04:41:23.231Z,69.6
2022-09-03T04:42:24.696Z,69.4
2022-09-03T04:43:25.293Z,69.8
2022-09-03T04:44:25.889Z,69.8
2022-09-03T04:45:26.537Z,69.8
2022-09-03T04:46:27.145Z,69.2
2022-09-03T04:47:27.698Z,69.7
2022-09-03T04:48:28.303Z,69.9
2022-09-03T04:49:28.898Z,69.8
2022-09-03T04:50:29.501Z,70.5
2022-09-03T04:51:30.152Z,69.7
2022-09-03T04:52:31.690Z,70.2
2022-09-03T04:53:32.290Z,70.1
2022-09-03T04:54:32.890Z,70.0
2022-09-03T04:55:33.489Z,70.5
2022-09-03T04:56:34.109Z,69.9
2022-09-03T04:57:34.706Z,70.3
2022-09-03T04:58:35.305Z,70.1
2022-09-03T04:59:35.907Z,70.2
2022-09-03T05:00:36.506Z,70.3
2022-09-03T05:01:37.150Z,70.5
2022-09-03T05:02:37.823Z,70.6
2022-09-03T05:03:38.408Z,71.0
2022-09-03T05:04:39.010Z,71.1
2022-09-03T05:05:39.609Z,70.6
2022-09-03T05:06:40.213Z,70.1
2022-09-03T05:07:40.813Z,70.5
2022-09-03T05:08:41.412Z,70.1
2022-09-03T05:09:42.013Z,70.2
2022-09-03T05:10:42.612Z,70.2
2022-09-03T05:11:43.212Z,70.4
2022-09-03T05:12:43.816Z,70.4
2022-09-03T05:13:44.410Z,70.2
2022-09-03T05:14:45.009Z,70.0
2022-09-03T05:15:45.608Z,70.5
2022-09-03T05:16:53.230Z,69.7
2022-09-03T05:17:47.799Z,70.4
2022-09-03T05:18:48.399Z,70.6
2022-09-03T05:19:49.002Z,70.3
2022-09-03T05:20:49.600Z,70.3
2022-09-03T05:21:50.202Z,70.0
2022-09-03T05:22:50.799Z,70.3
2022-09-03T05:23:51.400Z,70.3
2022-09-03T05:24:52.000Z,70.2
2022-09-03T05:25:52.600Z,70.0
2022-09-03T05:26:53.199Z,70.8
2022-09-03T05:27:53.799Z,69.8
2022-09-03T05:28:54.419Z,70.2
2022-09-03T05:29:55.017Z,70.2
2022-09-03T05:30:55.620Z,70.1
2022-09-03T05:31:56.291Z,69.7
2022-09-03T05:32:56.874Z,69.5
2022-09-03T05:33:57.474Z,69.7
2022-09-03T05:34:58.076Z,69.8
2022-09-03T05:35:58.678Z,69.1
2022-09-03T05:36:59.278Z,66.6
2022-09-03T05:37:59.879Z,63.3
2022-09-03T05:39:00.478Z,59.7
2022-09-03T05:40:01.102Z,57.7
2022-09-03T05:41:01.683Z,57.9
2022-09-03T05:42:02.281Z,55.8
2022-09-03T05:43:06.595Z,54.7
2022-09-03T05:44:04.473Z,54.1
2022-09-03T05:45:05.096Z,52.6
2022-09-03T05:46:05.756Z,51.5
2022-09-03T05:47:06.345Z,50.9
2022-09-03T05:48:06.945Z,49.8
2022-09-03T05:49:07.546Z,50.8
2022-09-03T05:50:08.145Z,50.3
2022-09-03T05:51:08.744Z,49.6
2022-09-03T05:52:09.342Z,49.7
2022-09-03T05:53:09.944Z,49.6
2022-09-03T05:54:10.577Z,49.3
2022-09-03T05:55:13.472Z,47.7
2022-09-03T05:56:12.748Z,47.3
2022-09-03T05:57:13.349Z,48.1
2022-09-03T05:58:13.950Z,47.4
2022-09-03T05:59:14.548Z,46.0
2022-09-03T06:00:15.150Z,46.4
2022-09-03T06:01:15.751Z,46.3
2022-09-03T06:02:16.454Z,45.0
2022-09-03T06:03:18.048Z,44.8
2022-09-03T06:04:18.717Z,45.0
2022-09-03T06:05:19.317Z,45.8
2022-09-03T06:06:19.917Z,45.3
2022-09-03T06:07:20.517Z,46.4
2022-09-03T06:08:21.117Z,45.1
2022-09-03T06:09:23.139Z,44.7
2022-09-03T06:10:26.262Z,46.0
2022-09-03T06:11:24.903Z,45.5
2022-09-03T06:12:25.505Z,45.1
2022-09-03T06:13:26.108Z,43.0
2022-09-03T06:14:26.725Z,42.5
2022-09-03T06:15:27.329Z,43.0
2022-09-03T06:16:30.559Z,42.5
2022-09-03T06:17:29.541Z,41.8
2022-09-03T06:18:30.155Z,42.2
2022-09-03T06:19:30.763Z,41.9
2022-09-03T06:20:36.339Z,41.8
2022-09-03T06:21:32.964Z,42.6
2022-09-03T06:22:33.558Z,42.7
2022-09-03T06:23:34.178Z,43.4
2022-09-03T06:24:35.772Z,43.4
2022-09-03T06:25:36.372Z,43.3
2022-09-03T06:26:36.973Z,41.8
2022-09-03T06:27:37.572Z,41.4
2022-09-03T06:28:38.201Z,41.7
2022-09-03T06:29:38.774Z,42.9
2022-09-03T06:30:39.377Z,41.8
2022-09-03T06:31:40.029Z,41.9
2022-09-03T06:32:40.623Z,43.0
2022-09-03T06:33:41.200Z,42.1
2022-09-03T06:34:41.799Z,42.2
2022-09-03T06:35:43.170Z,41.5
2022-09-03T06:36:43.853Z,42.4
2022-09-03T06:37:44.449Z,41.5
2022-09-03T06:38:45.046Z,41.2
2022-09-03T06:39:45.687Z,39.8
2022-09-03T06:40:46.272Z,39.2
2022-09-03T06:41:46.870Z,39.9
2022-09-03T06:42:47.473Z,40.3
2022-09-03T06:43:48.081Z,41.1
2022-09-03T06:44:48.693Z,40.6
2022-09-03T06:45:49.320Z,39.8
2022-09-03T06:46:49.896Z,40.1
2022-09-03T06:47:50.497Z,40.7
2022-09-03T06:48:51.101Z,39.9
2022-09-03T06:49:51.699Z,39.5
2022-09-03T06:50:52.304Z,40.6
2022-09-03T06:51:52.902Z,41.6
2022-09-03T06:52:53.505Z,42.5
2022-09-03T06:53:54.104Z,43.4
2022-09-03T06:54:54.728Z,42.1
2022-09-03T06:55:55.333Z,41.9
2022-09-03T06:56:55.927Z,42.8
2022-09-03T06:57:56.528Z,42.2
2022-09-03T06:58:57.794Z,41.8
2022-09-03T06:59:58.396Z,41.6
2022-09-03T07:00:59.111Z,42.8
2022-09-03T07:01:59.883Z,42.6
2022-09-03T07:03:00.489Z,43.9
2022-09-03T07:04:01.100Z,44.8
2022-09-03T07:05:01.779Z,44.2
2022-09-03T07:06:02.379Z,43.6
2022-09-03T07:07:02.981Z,42.9
2022-09-03T07:08:03.583Z,43.9
2022-09-03T07:09:04.185Z,42.4
2022-09-03T07:10:04.783Z,43.3
2022-09-03T07:11:05.383Z,42.3
2022-09-03T07:12:05.984Z,43.7
2022-09-03T07:13:06.586Z,44.0
2022-09-03T07:14:07.188Z,42.9
2022-09-03T07:15:07.805Z,43.5
2022-09-03T07:16:08.471Z,43.2
2022-09-03T07:17:09.006Z,42.8
2022-09-03T07:18:09.607Z,42.5
2022-09-03T07:19:10.238Z,42.9
2022-09-03T07:20:10.807Z,44.1
2022-09-03T07:21:11.408Z,45.3
2022-09-03T07:22:12.557Z,44.8
2022-09-03T07:23:13.155Z,44.5
2022-09-03T07:24:13.760Z,47.7
2022-09-03T07:25:14.357Z,46.6
2022-09-03T07:26:14.957Z,46.0
2022-09-03T07:27:15.559Z,45.0
2022-09-03T07:28:16.179Z,46.1
2022-09-03T07:29:17.268Z,46.3
2022-09-03T07:30:17.868Z,47.3
2022-09-03T07:31:18.470Z,49.6
2022-09-03T07:32:19.069Z,49.0
2022-09-03T07:33:19.671Z,48.6
2022-09-03T07:34:20.272Z,49.7
2022-09-03T07:35:20.876Z,49.6
2022-09-03T07:36:22.293Z,49.9
2022-09-03T07:37:22.894Z,49.1
2022-09-03T07:38:23.612Z,49.0
2022-09-03T07:39:24.302Z,49.5
2022-09-03T07:40:24.901Z,50.1
2022-09-03T07:41:28.560Z,51.8
2022-09-03T07:42:26.121Z,52.1
2022-09-03T07:43:26.725Z,51.4
2022-09-03T07:44:27.326Z,52.4
2022-09-03T07:45:27.947Z,51.8
2022-09-03T07:46:28.591Z,52.6
2022-09-03T07:47:29.156Z,52.7
2022-09-03T07:48:32.271Z,53.6
2022-09-03T07:49:31.355Z,53.0
2022-09-03T07:50:31.957Z,52.1
2022-09-03T07:51:32.561Z,52.4
2022-09-03T07:52:33.163Z,52.2
2022-09-03T07:53:33.786Z,52.7
2022-09-03T07:54:34.387Z,52.8
2022-09-03T07:55:34.989Z,51.8
2022-09-03T07:56:35.591Z,51.3
2022-09-03T07:57:36.192Z,51.4
2022-09-03T07:58:36.813Z,51.9
2022-09-03T07:59:37.415Z,51.8
2022-09-03T08:00:38.064Z,50.7
2022-09-03T08:01:41.235Z,51.5
2022-09-03T08:02:44.191Z,52.3
2022-09-03T08:03:41.857Z,51.8
2022-09-03T08:04:42.423Z,51.0
2022-09-03T08:05:43.027Z,51.0
2022-09-03T08:06:43.630Z,51.3
2022-09-03T08:07:44.232Z,51.5
2022-09-03T08:08:44.833Z,51.6
2022-09-03T08:09:45.436Z,52.1
2022-09-03T08:10:46.040Z,52.3
2022-09-03T08:11:46.642Z,51.8
2022-09-03T08:12:47.246Z,52.5
2022-09-03T08:13:47.868Z,51.6
2022-09-03T08:14:48.469Z,50.9
2022-09-03T08:15:49.110Z,52.9
2022-09-03T08:16:49.688Z,51.9
2022-09-03T08:17:50.276Z,51.8
2022-09-03T08:18:50.879Z,52.6
2022-09-03T08:19:51.481Z,51.2
2022-09-03T08:20:52.084Z,51.5
2022-09-03T08:21:52.687Z,51.1
2022-09-03T08:22:53.288Z,51.0
2022-09-03T08:23:53.910Z,51.3
2022-09-03T08:24:54.510Z,50.5
2022-09-03T08:25:55.133Z,50.4
2022-09-03T08:26:55.736Z,49.7
2022-09-03T08:27:56.337Z,50.3
2022-09-03T08:28:56.938Z,49.5
2022-09-03T08:29:57.541Z,49.5
2022-09-03T08:30:58.181Z,49.8
2022-09-03T08:31:59.699Z,49.2
2022-09-03T08:32:59.364Z,48.7
2022-09-03T08:33:59.967Z,49.5
2022-09-03T08:35:00.568Z,49.7
2022-09-03T08:36:01.172Z,49.6
2022-09-03T08:37:01.772Z,50.0
2022-09-03T08:38:02.375Z,50.6
2022-09-03T08:39:02.981Z,50.0
2022-09-03T08:40:03.623Z,49.7
2022-09-03T08:41:04.197Z,48.9
2022-09-03T08:42:04.802Z,48.9
2022-09-03T08:43:06.924Z,48.7
2022-09-03T08:44:07.000Z,49.1
2022-09-03T08:45:07.602Z,49.9
2022-09-03T08:46:08.234Z,49.6
2022-09-03T08:47:08.809Z,48.6
2022-09-03T08:48:09.414Z,49.4
2022-09-03T08:49:10.033Z,50.2
2022-09-03T08:50:10.637Z,49.8
2022-09-03T08:51:11.238Z,49.2
2022-09-03T08:52:11.842Z,48.7
2022-09-03T08:53:12.444Z,48.6
2022-09-03T08:54:13.050Z,48.7
2022-09-03T08:55:13.671Z,48.7
2022-09-03T08:56:14.274Z,47.1
2022-09-03T08:57:14.875Z,48.9
2022-09-03T08:58:15.583Z,49.0
2022-09-03T08:59:16.098Z,47.5
2022-09-03T09:00:16.697Z,47.6
2022-09-03T09:01:17.333Z,47.4
2022-09-03T09:02:18.018Z,46.6
2022-09-03T09:03:18.676Z,46.5
2022-09-03T09:04:19.278Z,45.8
2022-09-03T09:05:19.881Z,46.1
2022-09-03T09:06:20.491Z,45.1
2022-09-03T09:07:21.106Z,45.8
2022-09-03T09:08:21.785Z,45.8
2022-09-03T09:09:22.364Z,45.4
2022-09-03T09:10:22.966Z,44.9
2022-09-03T09:11:23.568Z,44.5
2022-09-03T09:12:24.171Z,45.0
2022-09-03T09:13:25.766Z,46.0
2022-09-03T09:14:27.363Z,45.1
2022-09-03T09:15:27.966Z,45.3
2022-09-03T09:16:28.616Z,45.7
2022-09-03T09:17:29.176Z,44.2
2022-09-03T09:18:29.780Z,44.3
2022-09-03T09:19:30.384Z,44.7
2022-09-03T09:20:30.987Z,44.6
2022-09-03T09:21:31.588Z,44.8
2022-09-03T09:22:32.191Z,44.2
2022-09-03T09:23:32.791Z,44.3
2022-09-03T09:24:33.394Z,44.5
2022-09-03T09:25:33.994Z,44.3
2022-09-03T09:26:34.599Z,44.8
2022-09-03T09:27:35.200Z,44.7
2022-09-03T09:28:35.806Z,43.8
2022-09-03T09:29:36.407Z,44.1
2022-09-03T09:30:37.029Z,43.9
2022-09-03T09:31:37.675Z,43.9
2022-09-03T09:32:38.247Z,43.6
2022-09-03T09:33:38.848Z,44.3
2022-09-03T09:34:39.451Z,43.6
2022-09-03T09:35:40.051Z,42.3
2022-09-03T09:36:40.653Z,43.0
2022-09-03T09:37:41.254Z,43.1
2022-09-03T09:38:41.855Z,43.7
2022-09-03T09:39:42.480Z,43.0
2022-09-03T09:40:44.817Z,42.0
2022-09-03T09:41:44.675Z,43.2
2022-09-03T09:42:45.277Z,43.3
2022-09-03T09:43:45.880Z,42.9
2022-09-03T09:44:46.484Z,42.7
2022-09-03T09:45:47.084Z,44.3
2022-09-03T09:46:50.262Z,44.4
2022-09-03T09:47:49.285Z,44.4
2022-09-03T09:48:49.889Z,44.2
2022-09-03T09:49:50.490Z,44.4
2022-09-03T09:50:51.094Z,44.3
2022-09-03T09:51:51.694Z,44.2
2022-09-03T09:52:55.159Z,44.4
2022-09-03T09:53:53.892Z,42.6
2022-09-03T09:54:54.497Z,43.5
2022-09-03T09:55:55.098Z,43.7
2022-09-03T09:56:55.699Z,44.5
2022-09-03T09:57:56.303Z,44.9
2022-09-03T09:58:56.908Z,44.2
2022-09-03T09:59:57.511Z,44.5
2022-09-03T10:00:58.114Z,44.8
2022-09-03T10:01:59.758Z,44.7
2022-09-03T10:03:00.356Z,44.2
2022-09-03T10:04:00.917Z,44.5
2022-09-03T10:05:01.520Z,44.7
2022-09-03T10:06:02.122Z,44.7
2022-09-03T10:07:02.727Z,44.4
2022-09-03T10:08:03.345Z,44.8
2022-09-03T10:09:03.949Z,43.9
2022-09-03T10:10:04.574Z,43.9
2022-09-03T10:11:05.194Z,44.8
2022-09-03T10:12:05.799Z,44.7
2022-09-03T10:13:06.403Z,44.2
2022-09-03T10:14:07.001Z,42.7
2022-09-03T10:15:07.605Z,44.2
2022-09-03T10:16:08.221Z,42.9
2022-09-03T10:17:08.807Z,42.0
2022-09-03T10:18:09.614Z,43.4
2022-09-03T10:19:10.218Z,42.0
2022-09-03T10:20:10.817Z,42.3
2022-09-03T10:21:11.420Z,43.4
2022-09-03T10:22:12.023Z,43.4
2022-09-03T10:23:12.627Z,43.0
2022-09-03T10:24:13.228Z,42.5
2022-09-03T10:25:13.832Z,41.7
2022-09-03T10:26:14.450Z,41.9
2022-09-03T10:27:15.055Z,41.9
2022-09-03T10:28:15.681Z,41.8
2022-09-03T10:29:16.277Z,41.7
2022-09-03T10:30:16.881Z,43.1
2022-09-03T10:31:17.535Z,43.4
2022-09-03T10:32:18.142Z,41.8
2022-09-03T10:33:18.743Z,42.0
2022-09-03T10:34:19.353Z,42.6
2022-09-03T10:35:19.947Z,41.2
2022-09-03T10:36:20.554Z,42.0
2022-09-03T10:37:21.175Z,42.1
2022-09-03T10:38:21.777Z,41.4
2022-09-03T10:39:22.436Z,41.8
2022-09-03T10:40:23.001Z,42.1
2022-09-03T10:41:23.609Z,41.7
2022-09-03T10:42:24.206Z,42.5
2022-09-03T10:43:24.808Z,42.1
2022-09-03T10:44:25.413Z,41.8
2022-09-03T10:45:26.017Z,41.5
2022-09-03T10:46:26.691Z,41.0
2022-09-03T10:47:27.297Z,40.6
2022-09-03T10:48:27.917Z,40.7
2022-09-03T10:49:28.522Z,40.1
2022-09-03T10:50:29.131Z,39.9
2022-09-03T10:51:29.733Z,40.0
2022-09-03T10:52:30.357Z,41.1
2022-09-03T10:53:31.003Z,40.7
2022-09-03T10:54:31.601Z,40.3
2022-09-03T10:55:32.207Z,40.6
2022-09-03T10:56:32.808Z,41.0
2022-09-03T10:57:33.411Z,41.4
2022-09-03T10:58:34.440Z,41.2
2022-09-03T10:59:35.199Z,41.2
2022-09-03T11:00:35.802Z,41.5
2022-09-03T11:01:36.507Z,42.4
2022-09-03T11:02:37.144Z,41.5
2022-09-03T11:03:37.717Z,41.7
2022-09-03T11:04:38.321Z,40.7
2022-09-03T11:05:38.924Z,40.6
2022-09-03T11:06:39.531Z,42.0
2022-09-03T11:07:40.131Z,41.8
2022-09-03T11:08:40.735Z,41.9
2022-09-03T11:09:41.337Z,40.9
2022-09-03T11:10:41.942Z,41.6
2022-09-03T11:11:42.544Z,41.4
2022-09-03T11:12:43.243Z,41.5
2022-09-03T11:13:43.777Z,41.0
2022-09-03T11:14:44.383Z,41.7
2022-09-03T11:15:45.011Z,40.5
2022-09-03T11:16:45.609Z,40.7
2022-09-03T11:17:46.212Z,40.4
2022-09-03T11:18:46.816Z,39.7
2022-09-03T11:19:47.439Z,40.4
2022-09-03T11:20:48.043Z,40.1
2022-09-03T11:21:48.647Z,39.7
2022-09-03T11:22:49.324Z,39.4
2022-09-03T11:23:49.897Z,39.8
2022-09-03T11:24:51.495Z,39.7
2022-09-03T11:25:52.097Z,39.5
2022-09-03T11:26:52.705Z,39.5
2022-09-03T11:27:56.443Z,40.2
2022-09-03T11:28:54.904Z,39.6
2022-09-03T11:29:55.507Z,39.3
2022-09-03T11:30:56.151Z,39.6
2022-09-03T11:31:56.713Z,39.7
2022-09-03T11:32:57.319Z,39.4
2022-09-03T11:33:57.921Z,40.2
2022-09-03T11:34:58.528Z,40.3
2022-09-03T11:35:59.130Z,39.1
2022-09-03T11:36:59.734Z,39.2
2022-09-03T11:38:00.335Z,39.4
2022-09-03T11:39:00.937Z,39.5
2022-09-03T11:40:01.629Z,39.8
2022-09-03T11:41:02.228Z,39.6
2022-09-03T11:42:02.833Z,39.7
2022-09-03T11:43:03.443Z,40.0
2022-09-03T11:44:04.765Z,41.4
2022-09-03T11:45:05.314Z,40.6
2022-09-03T11:46:05.959Z,41.6
2022-09-03T11:47:06.544Z,40.5
2022-09-03T11:48:07.147Z,40.2
2022-09-03T11:49:07.751Z,39.8
2022-09-03T11:50:08.355Z,40.2
2022-09-03T11:51:08.959Z,40.0
2022-09-03T11:52:09.564Z,40.4
2022-09-03T11:53:10.166Z,40.4
2022-09-03T11:54:10.899Z,40.4
2022-09-03T11:55:11.503Z,40.2
2022-09-03T11:56:12.107Z,41.2
2022-09-03T11:57:12.727Z,39.9
2022-09-03T11:58:13.341Z,39.7
2022-09-03T11:59:13.937Z,40.8
2022-09-03T12:00:14.536Z,40.0
2022-09-03T12:01:16.300Z,39.8
2022-09-03T12:02:16.796Z,39.5
2022-09-03T12:03:17.356Z,39.5
2022-09-03T12:04:18.129Z,39.8
2022-09-03T12:05:18.781Z,39.5
2022-09-03T12:06:19.382Z,39.3
2022-09-03T12:07:20.242Z,40.7
2022-09-03T12:08:21.404Z,41.2
2022-09-03T12:09:22.011Z,41.2
2022-09-03T12:10:22.613Z,39.9
2022-09-03T12:11:23.221Z,39.5
2022-09-03T12:12:23.825Z,39.6
2022-09-03T12:13:24.578Z,39.3
2022-09-03T12:14:25.197Z,39.2
2022-09-03T12:15:25.799Z,39.0
2022-09-03T12:16:26.472Z,40.4
2022-09-03T12:17:27.081Z,40.2
2022-09-03T12:18:27.686Z,39.6
2022-09-03T12:19:28.287Z,39.6
2022-09-03T12:20:28.912Z,39.8
2022-09-03T12:21:29.515Z,40.2
2022-09-03T12:22:31.113Z,41.6
2022-09-03T12:23:31.737Z,41.4
2022-09-03T12:24:34.646Z,41.6
2022-09-03T12:25:33.937Z,40.8
2022-09-03T12:26:34.542Z,40.0
2022-09-03T12:27:35.146Z,39.7
2022-09-03T12:28:35.750Z,39.6
2022-09-03T12:29:36.355Z,40.3
2022-09-03T12:30:37.028Z,39.3
2022-09-03T12:31:42.553Z,39.2
2022-09-03T12:32:39.179Z,39.8
2022-09-03T12:33:39.802Z,39.8
2022-09-03T12:34:40.404Z,39.5
2022-09-03T12:36:42.601Z,39.3
2022-09-03T12:39:10.403Z,39.0
2022-09-03T12:41:49.638Z,39.6
2022-09-03T12:42:50.471Z,39.5
2022-09-03T12:43:51.691Z,39.1
2022-09-03T12:44:52.388Z,39.3
2022-09-03T12:47:33.690Z,39.1
2022-09-03T12:47:56.215Z,38.3
2022-09-03T12:49:58.386Z,38.8
2022-09-03T12:50:59.350Z,39.2
2022-09-03T12:52:04.613Z,39.6
2022-09-03T12:53:00.231Z,39.7
2022-09-03T12:54:00.978Z,38.5
2022-09-03T12:55:01.552Z,39.0
2022-09-03T12:56:02.159Z,39.5
2022-09-03T12:57:02.781Z,39.5
2022-09-03T12:58:03.387Z,39.2
2022-09-03T12:59:03.988Z,39.3
2022-09-03T13:00:04.592Z,39.7
2022-09-03T13:01:05.323Z,39.3
2022-09-03T13:02:05.879Z,39.4
2022-09-03T13:03:06.494Z,39.0
2022-09-03T13:04:07.117Z,38.9
2022-09-03T13:05:08.715Z,39.8
2022-09-03T13:06:09.320Z,39.4
2022-09-03T13:07:09.920Z,39.0
2022-09-03T13:08:10.525Z,38.3
2022-09-03T13:09:11.126Z,38.8
2022-09-03T13:10:11.733Z,39.3
2022-09-03T13:11:12.332Z,39.5
2022-09-03T13:12:13.929Z,38.6
2022-09-03T13:13:14.531Z,39.2
2022-09-03T13:14:15.136Z,37.2
2022-09-03T13:15:15.738Z,37.8
2022-09-03T13:16:16.364Z,37.9
2022-09-03T13:17:16.947Z,37.9
2022-09-03T13:18:17.550Z,38.3
2022-09-03T13:19:18.146Z,38.9
2022-09-03T13:20:18.752Z,38.7
2022-09-03T13:21:19.356Z,38.2
2022-09-03T13:22:19.958Z,39.7
2022-09-03T13:23:20.560Z,39.5
2022-09-03T13:24:21.167Z,39.4
2022-09-03T13:25:21.770Z,39.6
2022-09-03T13:26:22.378Z,39.4
2022-09-03T13:27:22.978Z,39.5
2022-09-03T13:28:23.582Z,38.0
2022-09-03T13:29:24.186Z,38.0
2022-09-03T13:30:24.827Z,38.9
2022-09-03T13:31:25.395Z,38.6
2022-09-03T13:32:26.000Z,38.7
2022-09-03T13:33:26.613Z,38.1